sensor_id;sensor_type;location;lat;lon;timestamp;P1;durP1;ratioP1;P2;durP2;ratioP2
6346;SDS011;3206;42.666;23.600;2022-10-16T00:01:26;0.70;;;0.70;;
6346;SDS011;3206;42.666;23.600;2022-10-16T00:03:54;0.57;;;0.57;;
6346;SDS011;3206;42.666;23.600;2022-10-16T00:06:21;0.57;;;0.57;;
6346;SDS011;3206;42.666;23.600;2022-10-16T00:08:49;1.07;;;1.03;;
6346;SDS011;3206;42.666;23.600;2022-10-16T00:11:18;0.80;;;0.80;;
6346;SDS011;3206;42.666;23.600;2022-10-16T00:13:48;0.60;;;0.60;;
6346;SDS011;3206;42.666;23.600;2022-10-16T00:16:16;0.43;;;0.43;;
6346;SDS011;3206;42.666;23.600;2022-10-16T00:18:44;1.07;;;0.97;;
6346;SDS011;3206;42.666;23.600;2022-10-16T00:21:11;0.63;;;0.63;;
6346;SDS011;3206;42.666;23.600;2022-10-16T00:23:39;0.70;;;0.70;;
6346;SDS011;3206;42.666;23.600;2022-10-16T00:26:07;0.77;;;0.77;;
6346;SDS011;3206;42.666;23.600;2022-10-16T00:28:36;0.70;;;0.70;;
6346;SDS011;3206;42.666;23.600;2022-10-16T00:31:05;1.33;;;0.93;;
6346;SDS011;3206;42.666;23.600;2022-10-16T00:33:33;0.67;;;0.67;;
6346;SDS011;3206;42.666;23.600;2022-10-16T00:36:00;0.77;;;0.77;;
6346;SDS011;3206;42.666;23.600;2022-10-16T00:38:28;0.50;;;0.50;;
6346;SDS011;3206;42.666;23.600;2022-10-16T00:40:54;0.70;;;0.50;;
6346;SDS011;3206;42.666;23.600;2022-10-16T00:43:35;0.47;;;0.47;;
6346;SDS011;3206;42.666;23.600;2022-10-16T00:46:08;0.70;;;0.70;;
6346;SDS011;3206;42.666;23.600;2022-10-16T00:48:39;0.40;;;0.40;;
6346;SDS011;3206;42.666;23.600;2022-10-16T00:51:06;0.87;;;0.87;;
6346;SDS011;3206;42.666;23.600;2022-10-16T00:53:33;0.53;;;0.53;;
6346;SDS011;3206;42.666;23.600;2022-10-16T00:56:01;1.10;;;1.10;;
6346;SDS011;3206;42.666;23.600;2022-10-16T00:58:28;1.40;;;1.07;;
6346;SDS011;3206;42.666;23.600;2022-10-16T01:00:55;0.60;;;0.60;;
6346;SDS011;3206;42.666;23.600;2022-10-16T01:03:25;1.70;;;1.10;;
6346;SDS011;3206;42.666;23.600;2022-10-16T01:06:00;0.67;;;0.67;;
6346;SDS011;3206;42.666;23.600;2022-10-16T01:08:45;0.50;;;0.50;;
6346;SDS011;3206;42.666;23.600;2022-10-16T01:11:20;0.50;;;0.50;;
6346;SDS011;3206;42.666;23.600;2022-10-16T01:13:53;0.73;;;0.73;;
6346;SDS011;3206;42.666;23.600;2022-10-16T01:16:25;0.83;;;0.83;;
6346;SDS011;3206;42.666;23.600;2022-10-16T01:19:01;0.67;;;0.67;;
6346;SDS011;3206;42.666;23.600;2022-10-16T01:21:36;0.60;;;0.60;;
6346;SDS011;3206;42.666;23.600;2022-10-16T01:24:07;0.50;;;0.50;;
6346;SDS011;3206;42.666;23.600;2022-10-16T01:26:50;0.50;;;0.50;;
6346;SDS011;3206;42.666;23.600;2022-10-16T01:29:29;0.50;;;0.50;;
6346;SDS011;3206;42.666;23.600;2022-10-16T01:32:02;0.50;;;0.50;;
6346;SDS011;3206;42.666;23.600;2022-10-16T01:34:37;0.50;;;0.50;;
6346;SDS011;3206;42.666;23.600;2022-10-16T01:37:09;0.70;;;0.70;;
6346;SDS011;3206;42.666;23.600;2022-10-16T01:39:40;0.30;;;0.30;;
6346;SDS011;3206;42.666;23.600;2022-10-16T01:42:13;0.67;;;0.67;;
6346;SDS011;3206;42.666;23.600;2022-10-16T01:44:43;1.00;;;0.90;;
6346;SDS011;3206;42.666;23.600;2022-10-16T01:47:12;0.70;;;0.70;;
6346;SDS011;3206;42.666;23.600;2022-10-16T01:49:40;0.80;;;0.80;;
6346;SDS011;3206;42.666;23.600;2022-10-16T01:52:10;0.63;;;0.63;;
6346;SDS011;3206;42.666;23.600;2022-10-16T01:54:40;0.60;;;0.60;;
6346;SDS011;3206;42.666;23.600;2022-10-16T01:57:10;0.50;;;0.50;;
6346;SDS011;3206;42.666;23.600;2022-10-16T01:59:40;0.40;;;0.40;;
6346;SDS011;3206;42.666;23.600;2022-10-16T02:02:10;0.53;;;0.53;;
6346;SDS011;3206;42.666;23.600;2022-10-16T02:04:39;0.80;;;0.80;;
6346;SDS011;3206;42.666;23.600;2022-10-16T02:07:09;0.50;;;0.50;;
6346;SDS011;3206;42.666;23.600;2022-10-16T02:09:36;0.60;;;0.60;;
6346;SDS011;3206;42.666;23.600;2022-10-16T02:12:06;0.60;;;0.60;;
6346;SDS011;3206;42.666;23.600;2022-10-16T02:14:38;0.40;;;0.40;;
6346;SDS011;3206;42.666;23.600;2022-10-16T02:17:10;0.50;;;0.50;;
6346;SDS011;3206;42.666;23.600;2022-10-16T02:19:37;0.97;;;0.57;;
6346;SDS011;3206;42.666;23.600;2022-10-16T02:22:06;0.70;;;0.43;;
6346;SDS011;3206;42.666;23.600;2022-10-16T02:24:37;1.17;;;0.70;;
6346;SDS011;3206;42.666;23.600;2022-10-16T02:27:07;0.93;;;0.90;;
6346;SDS011;3206;42.666;23.600;2022-10-16T02:29:39;0.70;;;0.70;;
6346;SDS011;3206;42.666;23.600;2022-10-16T02:32:15;0.97;;;0.63;;
6346;SDS011;3206;42.666;23.600;2022-10-16T02:34:46;0.53;;;0.53;;
6346;SDS011;3206;42.666;23.600;2022-10-16T02:37:14;0.47;;;0.47;;
6346;SDS011;3206;42.666;23.600;2022-10-16T02:39:42;0.63;;;0.63;;
6346;SDS011;3206;42.666;23.600;2022-10-16T02:42:09;0.57;;;0.50;;
6346;SDS011;3206;42.666;23.600;2022-10-16T02:44:37;0.87;;;0.80;;
6346;SDS011;3206;42.666;23.600;2022-10-16T02:47:05;0.50;;;0.50;;
6346;SDS011;3206;42.666;23.600;2022-10-16T02:49:32;0.67;;;0.67;;
6346;SDS011;3206;42.666;23.600;2022-10-16T02:51:59;0.80;;;0.80;;
6346;SDS011;3206;42.666;23.600;2022-10-16T02:54:26;0.30;;;0.30;;
6346;SDS011;3206;42.666;23.600;2022-10-16T02:56:52;0.40;;;0.40;;
6346;SDS011;3206;42.666;23.600;2022-10-16T02:59:19;0.57;;;0.57;;
6346;SDS011;3206;42.666;23.600;2022-10-16T03:01:45;0.67;;;0.67;;
6346;SDS011;3206;42.666;23.600;2022-10-16T03:04:13;0.77;;;0.77;;
6346;SDS011;3206;42.666;23.600;2022-10-16T03:06:40;0.50;;;0.50;;
6346;SDS011;3206;42.666;23.600;2022-10-16T03:09:07;1.23;;;0.93;;
6346;SDS011;3206;42.666;23.600;2022-10-16T03:11:33;0.40;;;0.40;;
6346;SDS011;3206;42.666;23.600;2022-10-16T03:14:00;0.93;;;0.93;;
6346;SDS011;3206;42.666;23.600;2022-10-16T03:16:27;0.60;;;0.60;;
6346;SDS011;3206;42.666;23.600;2022-10-16T03:18:54;0.37;;;0.37;;
6346;SDS011;3206;42.666;23.600;2022-10-16T03:21:22;0.70;;;0.70;;
6346;SDS011;3206;42.666;23.600;2022-10-16T03:23:48;0.60;;;0.60;;
6346;SDS011;3206;42.666;23.600;2022-10-16T03:26:15;0.60;;;0.60;;
6346;SDS011;3206;42.666;23.600;2022-10-16T03:28:42;0.77;;;0.77;;
6346;SDS011;3206;42.666;23.600;2022-10-16T03:31:08;0.40;;;0.40;;
6346;SDS011;3206;42.666;23.600;2022-10-16T03:33:35;0.40;;;0.40;;
6346;SDS011;3206;42.666;23.600;2022-10-16T03:36:02;0.60;;;0.60;;
6346;SDS011;3206;42.666;23.600;2022-10-16T03:38:30;0.63;;;0.63;;
6346;SDS011;3206;42.666;23.600;2022-10-16T03:40:56;0.40;;;0.40;;
6346;SDS011;3206;42.666;23.600;2022-10-16T03:43:23;1.53;;;0.93;;
6346;SDS011;3206;42.666;23.600;2022-10-16T03:45:50;0.83;;;0.63;;
6346;SDS011;3206;42.666;23.600;2022-10-16T03:48:17;1.33;;;1.10;;
6346;SDS011;3206;42.666;23.600;2022-10-16T03:50:43;0.80;;;0.80;;
6346;SDS011;3206;42.666;23.600;2022-10-16T03:53:11;0.70;;;0.70;;
6346;SDS011;3206;42.666;23.600;2022-10-16T03:55:40;0.77;;;0.77;;
6346;SDS011;3206;42.666;23.600;2022-10-16T03:58:07;0.70;;;0.70;;
6346;SDS011;3206;42.666;23.600;2022-10-16T04:00:34;0.40;;;0.40;;
6346;SDS011;3206;42.666;23.600;2022-10-16T04:03:00;0.53;;;0.53;;
6346;SDS011;3206;42.666;23.600;2022-10-16T04:05:27;0.93;;;0.90;;
6346;SDS011;3206;42.666;23.600;2022-10-16T04:07:54;0.43;;;0.43;;
6346;SDS011;3206;42.666;23.600;2022-10-16T04:10:21;3.93;;;1.00;;
6346;SDS011;3206;42.666;23.600;2022-10-16T04:12:49;0.87;;;0.87;;
6346;SDS011;3206;42.666;23.600;2022-10-16T04:15:15;0.67;;;0.67;;
6346;SDS011;3206;42.666;23.600;2022-10-16T04:17:42;1.00;;;1.00;;
6346;SDS011;3206;42.666;23.600;2022-10-16T04:20:09;0.50;;;0.50;;
6346;SDS011;3206;42.666;23.600;2022-10-16T04:22:35;0.63;;;0.63;;
6346;SDS011;3206;42.666;23.600;2022-10-16T04:25:05;0.57;;;0.57;;
6346;SDS011;3206;42.666;23.600;2022-10-16T04:27:32;0.37;;;0.37;;
6346;SDS011;3206;42.666;23.600;2022-10-16T04:30:00;0.40;;;0.40;;
6346;SDS011;3206;42.666;23.600;2022-10-16T04:32:27;1.60;;;0.60;;
6346;SDS011;3206;42.666;23.600;2022-10-16T04:34:54;0.83;;;0.83;;
6346;SDS011;3206;42.666;23.600;2022-10-16T04:37:23;0.63;;;0.63;;
6346;SDS011;3206;42.666;23.600;2022-10-16T04:39:50;0.47;;;0.47;;
6346;SDS011;3206;42.666;23.600;2022-10-16T04:42:17;0.50;;;0.50;;
6346;SDS011;3206;42.666;23.600;2022-10-16T04:44:43;0.70;;;0.70;;
6346;SDS011;3206;42.666;23.600;2022-10-16T04:47:11;0.63;;;0.63;;
6346;SDS011;3206;42.666;23.600;2022-10-16T04:49:38;0.87;;;0.87;;
6346;SDS011;3206;42.666;23.600;2022-10-16T04:52:05;0.50;;;0.50;;
6346;SDS011;3206;42.666;23.600;2022-10-16T04:54:31;0.53;;;0.53;;
6346;SDS011;3206;42.666;23.600;2022-10-16T04:56:58;0.50;;;0.50;;
6346;SDS011;3206;42.666;23.600;2022-10-16T04:59:25;0.37;;;0.37;;
6346;SDS011;3206;42.666;23.600;2022-10-16T05:01:51;0.60;;;0.60;;
6346;SDS011;3206;42.666;23.600;2022-10-16T05:04:19;0.50;;;0.50;;
6346;SDS011;3206;42.666;23.600;2022-10-16T05:06:47;0.50;;;0.50;;
6346;SDS011;3206;42.666;23.600;2022-10-16T05:09:14;0.50;;;0.50;;
6346;SDS011;3206;42.666;23.600;2022-10-16T05:11:40;0.67;;;0.67;;
6346;SDS011;3206;42.666;23.600;2022-10-16T05:14:07;1.13;;;1.00;;
6346;SDS011;3206;42.666;23.600;2022-10-16T05:16:34;0.73;;;0.73;;
6346;SDS011;3206;42.666;23.600;2022-10-16T05:19:00;1.20;;;1.10;;
6346;SDS011;3206;42.666;23.600;2022-10-16T05:21:28;2.00;;;0.70;;
6346;SDS011;3206;42.666;23.600;2022-10-16T05:23:55;1.37;;;1.37;;
6346;SDS011;3206;42.666;23.600;2022-10-16T05:26:21;0.77;;;0.77;;
6346;SDS011;3206;42.666;23.600;2022-10-16T05:28:49;0.90;;;0.90;;
6346;SDS011;3206;42.666;23.600;2022-10-16T05:31:16;1.27;;;1.10;;
6346;SDS011;3206;42.666;23.600;2022-10-16T05:33:42;0.93;;;0.90;;
6346;SDS011;3206;42.666;23.600;2022-10-16T05:36:10;1.10;;;1.10;;
6346;SDS011;3206;42.666;23.600;2022-10-16T05:38:39;0.80;;;0.80;;
6346;SDS011;3206;42.666;23.600;2022-10-16T05:41:06;0.77;;;0.77;;
6346;SDS011;3206;42.666;23.600;2022-10-16T05:43:32;0.87;;;0.87;;
6346;SDS011;3206;42.666;23.600;2022-10-16T05:46:00;0.63;;;0.63;;
6346;SDS011;3206;42.666;23.600;2022-10-16T05:48:29;1.23;;;1.23;;
6346;SDS011;3206;42.666;23.600;2022-10-16T05:50:56;1.27;;;1.27;;
6346;SDS011;3206;42.666;23.600;2022-10-16T05:53:24;0.90;;;0.90;;
6346;SDS011;3206;42.666;23.600;2022-10-16T05:55:53;1.47;;;1.20;;
6346;SDS011;3206;42.666;23.600;2022-10-16T05:58:20;1.50;;;1.40;;
6346;SDS011;3206;42.666;23.600;2022-10-16T06:00:57;0.93;;;0.73;;
6346;SDS011;3206;42.666;23.600;2022-10-16T06:03:25;1.23;;;1.13;;
6346;SDS011;3206;42.666;23.600;2022-10-16T06:05:51;0.80;;;0.80;;
6346;SDS011;3206;42.666;23.600;2022-10-16T06:08:19;1.07;;;1.07;;
6346;SDS011;3206;42.666;23.600;2022-10-16T06:10:48;0.60;;;0.60;;
6346;SDS011;3206;42.666;23.600;2022-10-16T06:13:16;1.47;;;1.37;;
6346;SDS011;3206;42.666;23.600;2022-10-16T06:15:43;1.90;;;1.83;;
6346;SDS011;3206;42.666;23.600;2022-10-16T06:18:10;1.37;;;1.30;;
6346;SDS011;3206;42.666;23.600;2022-10-16T06:20:37;2.03;;;1.83;;
6346;SDS011;3206;42.666;23.600;2022-10-16T06:23:03;1.67;;;1.03;;
6346;SDS011;3206;42.666;23.600;2022-10-16T06:25:30;0.80;;;0.80;;
6346;SDS011;3206;42.666;23.600;2022-10-16T06:27:57;0.70;;;0.70;;
6346;SDS011;3206;42.666;23.600;2022-10-16T06:30:25;1.07;;;1.07;;
6346;SDS011;3206;42.666;23.600;2022-10-16T06:32:52;0.90;;;0.90;;
6346;SDS011;3206;42.666;23.600;2022-10-16T06:35:19;1.10;;;1.10;;
6346;SDS011;3206;42.666;23.600;2022-10-16T06:37:47;0.73;;;0.73;;
6346;SDS011;3206;42.666;23.600;2022-10-16T06:40:13;1.17;;;1.17;;
6346;SDS011;3206;42.666;23.600;2022-10-16T06:42:40;1.00;;;1.00;;
6346;SDS011;3206;42.666;23.600;2022-10-16T06:45:07;0.70;;;0.70;;
6346;SDS011;3206;42.666;23.600;2022-10-16T06:47:36;1.20;;;1.20;;
6346;SDS011;3206;42.666;23.600;2022-10-16T06:50:03;1.20;;;1.20;;
6346;SDS011;3206;42.666;23.600;2022-10-16T06:52:31;3.03;;;1.70;;
6346;SDS011;3206;42.666;23.600;2022-10-16T06:54:58;0.87;;;0.87;;
6346;SDS011;3206;42.666;23.600;2022-10-16T06:57:25;4.77;;;1.83;;
6346;SDS011;3206;42.666;23.600;2022-10-16T06:59:51;1.67;;;1.47;;
6346;SDS011;3206;42.666;23.600;2022-10-16T07:02:18;1.97;;;1.87;;
6346;SDS011;3206;42.666;23.600;2022-10-16T07:04:46;1.67;;;1.57;;
6346;SDS011;3206;42.666;23.600;2022-10-16T07:07:13;1.17;;;1.17;;
6346;SDS011;3206;42.666;23.600;2022-10-16T07:09:40;1.43;;;1.43;;
6346;SDS011;3206;42.666;23.600;2022-10-16T07:12:06;1.77;;;1.67;;
6346;SDS011;3206;42.666;23.600;2022-10-16T07:14:33;2.23;;;1.73;;
6346;SDS011;3206;42.666;23.600;2022-10-16T07:17:00;1.20;;;1.20;;
6346;SDS011;3206;42.666;23.600;2022-10-16T07:19:27;1.70;;;1.60;;
6346;SDS011;3206;42.666;23.600;2022-10-16T07:21:56;1.23;;;1.20;;
6346;SDS011;3206;42.666;23.600;2022-10-16T07:24:23;1.43;;;1.33;;
6346;SDS011;3206;42.666;23.600;2022-10-16T07:29:21;1.43;;;1.33;;
6346;SDS011;3206;42.666;23.600;2022-10-16T07:31:48;1.77;;;1.63;;
6346;SDS011;3206;42.666;23.600;2022-10-16T07:34:15;2.35;;;2.15;;
6346;SDS011;3206;42.666;23.600;2022-10-16T07:36:43;2.13;;;1.80;;
6346;SDS011;3206;42.666;23.600;2022-10-16T07:39:11;2.73;;;1.63;;
6346;SDS011;3206;42.666;23.600;2022-10-16T07:41:37;1.83;;;1.40;;
6346;SDS011;3206;42.666;23.600;2022-10-16T07:44:04;2.33;;;1.73;;
6346;SDS011;3206;42.666;23.600;2022-10-16T07:46:32;2.20;;;2.00;;
6346;SDS011;3206;42.666;23.600;2022-10-16T07:49:00;5.50;;;2.23;;
6346;SDS011;3206;42.666;23.600;2022-10-16T07:51:28;0.77;;;0.77;;
6346;SDS011;3206;42.666;23.600;2022-10-16T07:53:54;2.10;;;1.80;;
6346;SDS011;3206;42.666;23.600;2022-10-16T07:56:21;1.57;;;1.47;;
6346;SDS011;3206;42.666;23.600;2022-10-16T07:58:49;2.83;;;2.03;;
6346;SDS011;3206;42.666;23.600;2022-10-16T08:01:16;1.77;;;1.67;;
6346;SDS011;3206;42.666;23.600;2022-10-16T08:03:46;2.20;;;1.60;;
6346;SDS011;3206;42.666;23.600;2022-10-16T08:06:14;2.53;;;2.33;;
6346;SDS011;3206;42.666;23.600;2022-10-16T08:08:41;1.33;;;1.33;;
6346;SDS011;3206;42.666;23.600;2022-10-16T08:11:08;2.40;;;1.63;;
6346;SDS011;3206;42.666;23.600;2022-10-16T08:13:35;1.30;;;1.20;;
6346;SDS011;3206;42.666;23.600;2022-10-16T08:16:02;0.97;;;0.97;;
6346;SDS011;3206;42.666;23.600;2022-10-16T08:18:32;2.00;;;1.27;;
6346;SDS011;3206;42.666;23.600;2022-10-16T08:21:01;1.67;;;1.57;;
6346;SDS011;3206;42.666;23.600;2022-10-16T08:23:28;1.33;;;1.30;;
6346;SDS011;3206;42.666;23.600;2022-10-16T08:25:55;2.10;;;1.93;;
6346;SDS011;3206;42.666;23.600;2022-10-16T08:28:22;1.17;;;1.17;;
6346;SDS011;3206;42.666;23.600;2022-10-16T08:30:49;1.50;;;1.40;;
6346;SDS011;3206;42.666;23.600;2022-10-16T08:33:16;0.93;;;0.93;;
6346;SDS011;3206;42.666;23.600;2022-10-16T08:35:43;1.57;;;1.47;;
6346;SDS011;3206;42.666;23.600;2022-10-16T08:38:18;1.40;;;1.30;;
6346;SDS011;3206;42.666;23.600;2022-10-16T08:40:45;2.07;;;1.93;;
6346;SDS011;3206;42.666;23.600;2022-10-16T08:43:24;1.70;;;1.60;;
6346;SDS011;3206;42.666;23.600;2022-10-16T08:46:09;2.40;;;2.13;;
6346;SDS011;3206;42.666;23.600;2022-10-16T08:48:47;4.67;;;2.10;;
6346;SDS011;3206;42.666;23.600;2022-10-16T08:51:18;1.20;;;1.10;;
6346;SDS011;3206;42.666;23.600;2022-10-16T08:53:51;1.88;;;1.45;;
6346;SDS011;3206;42.666;23.600;2022-10-16T08:56:21;1.25;;;1.15;;
6346;SDS011;3206;42.666;23.600;2022-10-16T08:58:47;1.40;;;1.35;;
6346;SDS011;3206;42.666;23.600;2022-10-16T09:01:17;1.03;;;1.03;;
6346;SDS011;3206;42.666;23.600;2022-10-16T09:03:49;1.30;;;1.20;;
6346;SDS011;3206;42.666;23.600;2022-10-16T09:06:30;1.00;;;1.00;;
6346;SDS011;3206;42.666;23.600;2022-10-16T09:09:17;2.13;;;1.95;;
6346;SDS011;3206;42.666;23.600;2022-10-16T09:11:56;1.30;;;1.17;;
6346;SDS011;3206;42.666;23.600;2022-10-16T09:14:38;1.30;;;1.20;;
6346;SDS011;3206;42.666;23.600;2022-10-16T09:17:16;1.83;;;1.50;;
6346;SDS011;3206;42.666;23.600;2022-10-16T09:19:53;1.98;;;1.70;;
6346;SDS011;3206;42.666;23.600;2022-10-16T09:22:30;2.42;;;1.88;;
6346;SDS011;3206;42.666;23.600;2022-10-16T09:25:00;1.45;;;1.40;;
6346;SDS011;3206;42.666;23.600;2022-10-16T09:27:37;4.05;;;2.03;;
6346;SDS011;3206;42.666;23.600;2022-10-16T09:30:10;2.40;;;2.20;;
6346;SDS011;3206;42.666;23.600;2022-10-16T09:32:38;1.83;;;1.73;;
6346;SDS011;3206;42.666;23.600;2022-10-16T09:35:09;1.67;;;1.50;;
6346;SDS011;3206;42.666;23.600;2022-10-16T09:37:39;2.30;;;2.10;;
6346;SDS011;3206;42.666;23.600;2022-10-16T09:40:13;2.35;;;1.95;;
6346;SDS011;3206;42.666;23.600;2022-10-16T09:42:49;2.35;;;2.13;;
6346;SDS011;3206;42.666;23.600;2022-10-16T09:45:22;3.05;;;2.00;;
6346;SDS011;3206;42.666;23.600;2022-10-16T09:47:49;3.40;;;2.03;;
6346;SDS011;3206;42.666;23.600;2022-10-16T09:50:20;2.25;;;2.05;;
6346;SDS011;3206;42.666;23.600;2022-10-16T09:52:51;1.95;;;1.70;;
6346;SDS011;3206;42.666;23.600;2022-10-16T09:55:30;2.10;;;1.65;;
6346;SDS011;3206;42.666;23.600;2022-10-16T09:57:56;1.58;;;1.48;;
6346;SDS011;3206;42.666;23.600;2022-10-16T10:00:23;4.20;;;1.80;;
6346;SDS011;3206;42.666;23.600;2022-10-16T10:02:51;1.80;;;1.42;;
6346;SDS011;3206;42.666;23.600;2022-10-16T10:05:19;2.25;;;1.63;;
6346;SDS011;3206;42.666;23.600;2022-10-16T10:07:53;2.42;;;2.22;;
6346;SDS011;3206;42.666;23.600;2022-10-16T10:10:23;1.77;;;1.67;;
6346;SDS011;3206;42.666;23.600;2022-10-16T10:12:52;2.03;;;1.88;;
6346;SDS011;3206;42.666;23.600;2022-10-16T10:15:20;1.70;;;1.50;;
6346;SDS011;3206;42.666;23.600;2022-10-16T10:17:49;1.63;;;1.52;;
6346;SDS011;3206;42.666;23.600;2022-10-16T10:20:25;2.17;;;1.88;;
6346;SDS011;3206;42.666;23.600;2022-10-16T10:22:54;1.73;;;1.63;;
6346;SDS011;3206;42.666;23.600;2022-10-16T10:25:24;1.25;;;1.13;;
6346;SDS011;3206;42.666;23.600;2022-10-16T10:28:14;1.67;;;1.58;;
6346;SDS011;3206;42.666;23.600;2022-10-16T10:31:00;1.90;;;1.75;;
6346;SDS011;3206;42.666;23.600;2022-10-16T10:33:37;1.13;;;1.10;;
6346;SDS011;3206;42.666;23.600;2022-10-16T10:36:12;2.05;;;1.90;;
6346;SDS011;3206;42.666;23.600;2022-10-16T10:38:48;2.58;;;1.80;;
6346;SDS011;3206;42.666;23.600;2022-10-16T10:41:32;2.45;;;2.00;;
6346;SDS011;3206;42.666;23.600;2022-10-16T10:44:22;1.67;;;1.35;;
6346;SDS011;3206;42.666;23.600;2022-10-16T10:47:01;4.05;;;1.25;;
6346;SDS011;3206;42.666;23.600;2022-10-16T10:49:41;1.55;;;1.45;;
6346;SDS011;3206;42.666;23.600;2022-10-16T10:55:11;2.92;;;2.17;;
6346;SDS011;3206;42.666;23.600;2022-10-16T10:57:49;6.25;;;1.92;;
6346;SDS011;3206;42.666;23.600;2022-10-16T11:00:28;2.67;;;1.60;;
6346;SDS011;3206;42.666;23.600;2022-10-16T11:03:03;1.65;;;1.55;;
6346;SDS011;3206;42.666;23.600;2022-10-16T11:05:39;2.83;;;2.03;;
6346;SDS011;3206;42.666;23.600;2022-10-16T11:08:09;2.35;;;1.48;;
6346;SDS011;3206;42.666;23.600;2022-10-16T11:10:45;2.17;;;1.77;;
6346;SDS011;3206;42.666;23.600;2022-10-16T11:13:19;2.13;;;1.95;;
6346;SDS011;3206;42.666;23.600;2022-10-16T11:15:56;1.63;;;1.52;;
6346;SDS011;3206;42.666;23.600;2022-10-16T11:18:27;3.08;;;1.77;;
6346;SDS011;3206;42.666;23.600;2022-10-16T11:21:01;2.55;;;1.63;;
6346;SDS011;3206;42.666;23.600;2022-10-16T11:23:34;1.55;;;1.45;;
6346;SDS011;3206;42.666;23.600;2022-10-16T11:26:08;2.13;;;1.85;;
6346;SDS011;3206;42.666;23.600;2022-10-16T11:28:42;1.15;;;1.13;;
6346;SDS011;3206;42.666;23.600;2022-10-16T11:31:14;1.92;;;1.80;;
6346;SDS011;3206;42.666;23.600;2022-10-16T11:33:46;2.08;;;1.30;;
6346;SDS011;3206;42.666;23.600;2022-10-16T11:36:17;2.42;;;1.85;;
6346;SDS011;3206;42.666;23.600;2022-10-16T11:38:54;3.22;;;1.88;;
6346;SDS011;3206;42.666;23.600;2022-10-16T11:41:27;2.40;;;1.92;;
6346;SDS011;3206;42.666;23.600;2022-10-16T11:44:06;2.13;;;1.60;;
6346;SDS011;3206;42.666;23.600;2022-10-16T11:46:46;1.67;;;1.50;;
6346;SDS011;3206;42.666;23.600;2022-10-16T11:49:19;1.40;;;1.30;;
6346;SDS011;3206;42.666;23.600;2022-10-16T11:51:51;2.30;;;1.90;;
6346;SDS011;3206;42.666;23.600;2022-10-16T11:54:26;4.95;;;1.58;;
6346;SDS011;3206;42.666;23.600;2022-10-16T11:57:02;1.77;;;1.67;;
6346;SDS011;3206;42.666;23.600;2022-10-16T11:59:38;1.95;;;1.48;;
6346;SDS011;3206;42.666;23.600;2022-10-16T12:05:03;5.28;;;1.65;;
6346;SDS011;3206;42.666;23.600;2022-10-16T12:07:42;1.80;;;1.70;;
6346;SDS011;3206;42.666;23.600;2022-10-16T12:10:20;2.25;;;1.70;;
6346;SDS011;3206;42.666;23.600;2022-10-16T12:12:48;1.95;;;1.60;;
6346;SDS011;3206;42.666;23.600;2022-10-16T12:15:19;1.25;;;1.15;;
6346;SDS011;3206;42.666;23.600;2022-10-16T12:17:52;1.73;;;1.60;;
6346;SDS011;3206;42.666;23.600;2022-10-16T12:20:20;1.15;;;1.15;;
6346;SDS011;3206;42.666;23.600;2022-10-16T12:22:52;1.60;;;1.50;;
6346;SDS011;3206;42.666;23.600;2022-10-16T12:25:21;5.93;;;1.70;;
6346;SDS011;3206;42.666;23.600;2022-10-16T12:27:54;3.65;;;2.50;;
6346;SDS011;3206;42.666;23.600;2022-10-16T12:30:23;1.92;;;1.77;;
6346;SDS011;3206;42.666;23.600;2022-10-16T12:32:54;2.05;;;1.85;;
6346;SDS011;3206;42.666;23.600;2022-10-16T12:35:24;1.30;;;1.15;;
6346;SDS011;3206;42.666;23.600;2022-10-16T12:37:53;1.67;;;1.60;;
6346;SDS011;3206;42.666;23.600;2022-10-16T12:40:32;1.95;;;1.65;;
6346;SDS011;3206;42.666;23.600;2022-10-16T12:43:11;1.58;;;1.48;;
6346;SDS011;3206;42.666;23.600;2022-10-16T12:45:39;1.65;;;1.42;;
6346;SDS011;3206;42.666;23.600;2022-10-16T12:48:19;2.42;;;1.55;;
6346;SDS011;3206;42.666;23.600;2022-10-16T12:50:47;1.88;;;1.77;;
6346;SDS011;3206;42.666;23.600;2022-10-16T12:53:18;1.38;;;1.27;;
6346;SDS011;3206;42.666;23.600;2022-10-16T12:55:48;2.05;;;1.85;;
6346;SDS011;3206;42.666;23.600;2022-10-16T12:58:26;2.15;;;1.95;;
6346;SDS011;3206;42.666;23.600;2022-10-16T13:01:10;2.65;;;2.45;;
6346;SDS011;3206;42.666;23.600;2022-10-16T13:03:52;1.67;;;1.58;;
6346;SDS011;3206;42.666;23.600;2022-10-16T13:06:43;2.50;;;1.50;;
6346;SDS011;3206;42.666;23.600;2022-10-16T13:09:19;2.50;;;1.45;;
6346;SDS011;3206;42.666;23.600;2022-10-16T13:15:02;2.17;;;1.98;;
6346;SDS011;3206;42.666;23.600;2022-10-16T13:17:40;1.73;;;1.63;;
6346;SDS011;3206;42.666;23.600;2022-10-16T13:20:21;3.67;;;2.63;;
6346;SDS011;3206;42.666;23.600;2022-10-16T13:22:58;1.58;;;1.48;;
6346;SDS011;3206;42.666;23.600;2022-10-16T13:25:34;2.13;;;1.85;;
6346;SDS011;3206;42.666;23.600;2022-10-16T13:28:10;1.90;;;1.80;;
6346;SDS011;3206;42.666;23.600;2022-10-16T13:30:39;1.25;;;1.17;;
6346;SDS011;3206;42.666;23.600;2022-10-16T13:33:12;2.33;;;1.85;;
6346;SDS011;3206;42.666;23.600;2022-10-16T13:35:48;2.17;;;2.08;;
6346;SDS011;3206;42.666;23.600;2022-10-16T13:38:17;2.20;;;1.92;;
6346;SDS011;3206;42.666;23.600;2022-10-16T13:40:52;1.65;;;1.55;;
6346;SDS011;3206;42.666;23.600;2022-10-16T13:43:22;1.88;;;1.77;;
6346;SDS011;3206;42.666;23.600;2022-10-16T13:45:53;1.67;;;1.58;;
6346;SDS011;3206;42.666;23.600;2022-10-16T13:48:21;1.60;;;1.50;;
6346;SDS011;3206;42.666;23.600;2022-10-16T13:50:59;2.20;;;1.95;;
6346;SDS011;3206;42.666;23.600;2022-10-16T13:53:27;1.42;;;1.33;;
6346;SDS011;3206;42.666;23.600;2022-10-16T13:55:56;4.07;;;2.10;;
6346;SDS011;3206;42.666;23.600;2022-10-16T13:58:25;1.92;;;1.77;;
6346;SDS011;3206;42.666;23.600;2022-10-16T14:00:53;1.92;;;1.73;;
6346;SDS011;3206;42.666;23.600;2022-10-16T14:03:22;3.08;;;1.67;;
6346;SDS011;3206;42.666;23.600;2022-10-16T14:05:50;3.47;;;2.35;;
6346;SDS011;3206;42.666;23.600;2022-10-16T14:08:20;3.53;;;2.20;;
6346;SDS011;3206;42.666;23.600;2022-10-16T14:10:49;7.65;;;2.75;;
6346;SDS011;3206;42.666;23.600;2022-10-16T14:13:17;6.18;;;2.83;;
6346;SDS011;3206;42.666;23.600;2022-10-16T14:15:46;5.20;;;2.67;;
6346;SDS011;3206;42.666;23.600;2022-10-16T14:18:17;2.17;;;1.73;;
6346;SDS011;3206;42.666;23.600;2022-10-16T14:20:46;5.18;;;2.25;;
6346;SDS011;3206;42.666;23.600;2022-10-16T14:23:23;4.03;;;2.33;;
6346;SDS011;3206;42.666;23.600;2022-10-16T14:26:05;4.75;;;2.50;;
6346;SDS011;3206;42.666;23.600;2022-10-16T14:28:40;3.17;;;2.42;;
6346;SDS011;3206;42.666;23.600;2022-10-16T14:31:20;3.47;;;2.22;;
6346;SDS011;3206;42.666;23.600;2022-10-16T14:33:52;2.13;;;1.73;;
6346;SDS011;3206;42.666;23.600;2022-10-16T14:36:19;3.13;;;2.40;;
6346;SDS011;3206;42.666;23.600;2022-10-16T14:38:50;2.13;;;1.92;;
6346;SDS011;3206;42.666;23.600;2022-10-16T14:41:23;1.92;;;1.63;;
6346;SDS011;3206;42.666;23.600;2022-10-16T14:43:51;2.20;;;2.00;;
6346;SDS011;3206;42.666;23.600;2022-10-16T14:46:21;1.90;;;1.63;;
6346;SDS011;3206;42.666;23.600;2022-10-16T14:48:54;1.40;;;1.20;;
6346;SDS011;3206;42.666;23.600;2022-10-16T14:51:27;1.65;;;1.52;;
6346;SDS011;3206;42.666;23.600;2022-10-16T14:53:55;4.45;;;1.95;;
6346;SDS011;3206;42.666;23.600;2022-10-16T14:56:22;3.20;;;2.25;;
6346;SDS011;3206;42.666;23.600;2022-10-16T14:58:51;1.60;;;1.50;;
6346;SDS011;3206;42.666;23.600;2022-10-16T15:01:19;2.33;;;2.10;;
6346;SDS011;3206;42.666;23.600;2022-10-16T15:03:46;1.90;;;1.52;;
6346;SDS011;3206;42.666;23.600;2022-10-16T15:06:13;1.25;;;1.25;;
6346;SDS011;3206;42.666;23.600;2022-10-16T15:08:41;1.45;;;1.13;;
6346;SDS011;3206;42.666;23.600;2022-10-16T15:11:10;2.03;;;1.83;;
6346;SDS011;3206;42.666;23.600;2022-10-16T15:13:46;2.80;;;2.10;;
6346;SDS011;3206;42.666;23.600;2022-10-16T15:16:14;2.08;;;1.80;;
6346;SDS011;3206;42.666;23.600;2022-10-16T15:18:42;2.65;;;1.80;;
6346;SDS011;3206;42.666;23.600;2022-10-16T15:21:09;3.55;;;1.80;;
6346;SDS011;3206;42.666;23.600;2022-10-16T15:23:48;5.60;;;2.03;;
6346;SDS011;3206;42.666;23.600;2022-10-16T15:26:16;3.00;;;1.67;;
6346;SDS011;3206;42.666;23.600;2022-10-16T15:28:43;2.75;;;1.75;;
6346;SDS011;3206;42.666;23.600;2022-10-16T15:31:09;1.10;;;1.10;;